Time;durP1;ratioP1;P1;durP2;ratioP2;P2;SDS_P1;SDS_P2;PMS_P1;PMS_P2;Temp;Humidity;BMP_temperature;BMP_pressure;BME280_temperature;BME280_humidity;BME280_pressure;Samples;Min_cycle;Max_cycle;Signal;HPM_P1;HPM_P2
2022/06/23 00:00:37;;;;;;;2.40;1.10;;;19.70;99.90;;;;;;4928243;28;20054;-84
2022/06/23 00:03:05;;;;;;;0.13;0.13;;;19.70;99.90;;;;;;4938806;28;20046;-84
2022/06/23 00:05:39;;;;;;;0.10;0.10;;;19.60;99.90;;;;;;4948198;28;20495;-84
2022/06/23 00:08:11;;;;;;;0.00;0.00;;;19.60;99.90;;;;;;4942417;28;20047;-84
2022/06/23 00:10:41;;;;;;;0.25;0.13;;;19.60;99.90;;;;;;4942979;28;20054;-84
2022/06/23 00:13:25;;;;;;;0.20;0.20;;;19.40;99.90;;;;;;4943162;28;20035;-84
2022/06/23 00:15:54;;;;;;;1.48;0.50;;;19.40;99.90;;;;;;4943197;28;20034;-85
2022/06/23 00:18:26;;;;;;;0.15;0.13;;;19.30;99.90;;;;;;4942401;28;20067;-83
2022/06/23 00:21:05;;;;;;;0.75;0.45;;;19.30;99.90;;;;;;4942157;28;20051;-85
2022/06/23 00:23:35;;;;;;;0.20;0.20;;;19.10;99.90;;;;;;4942490;28;20039;-84
2022/06/23 00:26:12;;;;;;;0.15;0.15;;;19.00;99.90;;;;;;4943205;28;20043;-83
2022/06/23 00:29:06;;;;;;;0.10;0.10;;;18.90;99.90;;;;;;4942818;28;20055;-84
2022/06/23 00:31:40;;;;;;;0.32;0.32;;;18.90;99.90;;;;;;4941787;28;20035;-84
2022/06/23 00:34:29;;;;;;;0.20;0.20;;;18.90;99.90;;;;;;4943343;28;20041;-84
2022/06/23 00:37:05;;;;;;;5.50;0.63;;;18.90;99.90;;;;;;4942758;28;20969;-84
2022/06/23 00:39:49;;;;;;;0.30;0.20;;;18.90;99.90;;;;;;4940677;28;20511;-84
2022/06/23 00:42:40;;;;;;;0.00;0.00;;;18.90;99.90;;;;;;4926189;28;20117;-83
2022/06/23 00:45:11;;;;;;;1.20;0.55;;;18.90;99.90;;;;;;4940058;28;20035;-85
2022/06/23 00:48:02;;;;;;;0.43;0.35;;;18.90;99.90;;;;;;4940777;28;20034;-84
2022/06/23 00:50:45;;;;;;;4.55;0.30;;;18.90;99.90;;;;;;4939538;28;20031;-84
2022/06/23 00:53:11;;;;;;;0.30;0.30;;;18.90;99.90;;;;;;4942608;28;20133;-84
2022/06/23 00:55:43;;;;;;;0.90;0.30;;;18.70;99.90;;;;;;4941913;28;20502;-83
2022/06/23 00:58:31;;;;;;;0.10;0.10;;;18.70;99.90;;;;;;4941800;28;20034;-84
2022/06/23 01:01:05;;;;;;;0.10;0.10;;;18.60;99.90;;;;;;4942536;28;20069;-84
2022/06/23 01:03:37;;;;;;;0.03;0.03;;;18.50;99.90;;;;;;4945899;28;20111;-84
2022/06/23 01:06:38;;;;;;;0.20;0.20;;;18.50;99.90;;;;;;4941713;28;21030;-84
2022/06/23 01:09:22;;;;;;;0.47;0.38;;;18.40;99.90;;;;;;4945253;28;20026;-83
2022/06/23 01:11:55;;;;;;;0.10;0.10;;;18.50;99.90;;;;;;4940680;28;20086;-83
2022/06/23 01:14:27;;;;;;;4.28;1.20;;;18.60;99.90;;;;;;4940757;28;20041;-84
2022/06/23 01:17:01;;;;;;;0.10;0.10;;;18.50;99.90;;;;;;4940784;28;20062;-85
2022/06/23 01:19:52;;;;;;;0.08;0.08;;;18.50;99.90;;;;;;4941737;28;20050;-84
2022/06/23 01:22:48;;;;;;;0.00;0.00;;;18.40;99.90;;;;;;4940467;28;20058;-85
2022/06/23 01:25:32;;;;;;;0.93;0.38;;;18.30;99.90;;;;;;4935001;28;20026;-85
2022/06/23 01:28:21;;;;;;;0.15;0.15;;;18.20;99.90;;;;;;4944638;28;20050;-84
2022/06/23 01:31:05;;;;;;;0.00;0.00;;;18.20;99.90;;;;;;4926287;28;20027;-84
2022/06/23 01:33:34;;;;;;;0.82;0.45;;;18.30;99.90;;;;;;4940021;28;20039;-84
2022/06/23 01:36:28;;;;;;;0.10;0.10;;;18.20;99.90;;;;;;4940161;28;20154;-83
2022/06/23 01:39:24;;;;;;;0.32;0.25;;;18.10;99.90;;;;;;4938939;28;20552;-84
2022/06/23 01:41:58;;;;;;;0.30;0.30;;;18.10;99.90;;;;;;4835294;29;20041;-84
2022/06/23 01:44:36;;;;;;;0.10;0.10;;;18.10;99.90;;;;;;4836252;29;20441;-84
2022/06/23 01:47:21;;;;;;;0.73;0.73;;;18.10;99.90;;;;;;4837300;29;20038;-84
2022/06/23 01:49:50;;;;;;;0.28;0.28;;;18.10;99.90;;;;;;4838595;29;20627;-84
2022/06/23 01:52:20;;;;;;;0.10;0.10;;;18.10;99.90;;;;;;4836917;29;20045;-84
2022/06/23 01:55:01;;;;;;;0.85;0.50;;;18.10;99.90;;;;;;4836805;29;20032;-84
2022/06/23 01:57:42;;;;;;;0.38;0.38;;;18.00;99.90;;;;;;4836870;29;20041;-83
2022/06/23 02:00:25;;;;;;;0.10;0.10;;;18.00;99.90;;;;;;4838828;29;20060;-83
2022/06/23 02:03:29;;;;;;;0.10;0.10;;;18.00;99.90;;;;;;4824262;29;20030;-84
2022/06/23 02:06:11;;;;;;;0.20;0.20;;;18.00;99.90;;;;;;4770097;29;20054;-84
2022/06/23 02:08:52;;;;;;;0.00;0.00;;;18.00;99.90;;;;;;4761365;29;20081;-83
2022/06/23 02:11:34;;;;;;;0.10;0.10;;;18.10;99.90;;;;;;4765512;29;20106;-84
2022/06/23 02:14:40;;;;;;;0.00;0.00;;;18.00;99.90;;;;;;4766639;29;20040;-84
2022/06/23 02:17:28;;;;;;;0.75;0.75;;;17.90;99.90;;;;;;4695207;30;20053;-84
2022/06/23 02:19:56;;;;;;;0.13;0.13;;;17.90;99.90;;;;;;4752728;29;20078;-84
2022/06/23 02:22:25;;;;;;;0.10;0.10;;;18.00;99.90;;;;;;4757203;30;20055;-84
2022/06/23 02:25:04;;;;;;;0.10;0.10;;;18.00;99.90;;;;;;4760118;30;20651;-85
2022/06/23 02:27:45;;;;;;;0.43;0.43;;;18.00;99.90;;;;;;4763037;29;20038;-84
2022/06/23 02:30:15;;;;;;;0.30;0.30;;;18.00;99.90;;;;;;4772924;29;20960;-84
2022/06/23 02:32:50;;;;;;;0.00;0.00;;;17.90;99.90;;;;;;4762054;29;22188;-84
2022/06/23 02:35:25;;;;;;;0.10;0.10;;;17.90;99.90;;;;;;4760457;30;20081;-84
2022/06/23 02:38:02;;;;;;;1.58;0.98;;;17.80;99.90;;;;;;4843412;29;20050;-84
2022/06/23 02:41:03;;;;;;;0.13;0.13;;;17.70;99.90;;;;;;4845666;29;20080;-84
2022/06/23 02:43:41;;;;;;;0.40;0.40;;;17.60;99.90;;;;;;4846442;29;20034;-83
2022/06/23 02:46:12;;;;;;;0.10;0.10;;;17.60;99.90;;;;;;4848055;29;20037;-82
2022/06/23 02:49:14;;;;;;;0.20;0.20;;;17.60;99.90;;;;;;4911227;28;20162;-84
2022/06/23 02:51:40;;;;;;;0.10;0.10;;;17.60;99.90;;;;;;4945456;28;20031;-83
2022/06/23 02:54:27;;;;;;;0.67;0.20;;;17.50;99.90;;;;;;4945073;28;20038;-84
2022/06/23 02:57:32;;;;;;;2.47;0.43;;;17.50;99.90;;;;;;4943428;28;20094;-84
2022/06/23 03:00:26;;;;;;;0.30;0.30;;;17.40;99.90;;;;;;4944137;28;20467;-83
2022/06/23 03:03:05;;;;;;;0.20;0.20;;;17.40;99.90;;;;;;4944283;28;20047;-84
2022/06/23 03:06:06;;;;;;;0.00;0.00;;;17.40;99.90;;;;;;4943660;28;20057;-84
2022/06/23 03:08:38;;;;;;;0.00;0.00;;;17.40;99.90;;;;;;4932258;28;20175;-83
2022/06/23 03:14:38;;;;;;;0.20;0.20;;;17.20;99.90;;;;;;4943144;28;20090;-84
2022/06/23 03:17:10;;;;;;;0.08;0.08;;;17.30;99.90;;;;;;4943517;28;20119;-84
2022/06/23 03:19:42;;;;;;;0.65;0.40;;;17.30;99.90;;;;;;4946439;28;20091;-84
2022/06/23 03:22:21;;;;;;;0.00;0.00;;;17.40;99.90;;;;;;4943842;28;20047;-84
2022/06/23 03:25:02;;;;;;;0.10;0.10;;;17.50;99.90;;;;;;4943952;28;20039;-83
2022/06/23 03:27:42;;;;;;;0.20;0.20;;;17.50;99.90;;;;;;4946605;28;20082;-84
2022/06/23 03:30:22;;;;;;;0.75;0.32;;;17.40;99.90;;;;;;4945623;28;20134;-85
2022/06/23 03:33:00;;;;;;;0.00;0.00;;;17.30;99.90;;;;;;4942535;28;20407;-83
2022/06/23 03:35:35;;;;;;;0.10;0.10;;;17.20;99.90;;;;;;4942862;28;20066;-83
2022/06/23 03:38:04;;;;;;;0.05;0.05;;;17.00;99.90;;;;;;4943876;28;20049;-84
2022/06/23 03:43:47;;;;;;;0.28;0.28;;;16.90;99.90;;;;;;4942747;28;21962;-84
2022/06/23 03:47:08;;;;;;;0.00;0.00;;;17.00;99.90;;;;;;4934860;28;20042;-84
2022/06/23 03:49:59;;;;;;;0.10;0.10;;;16.90;99.90;;;;;;4859880;29;20045;-84
2022/06/23 03:52:42;;;;;;;0.10;0.10;;;16.90;99.90;;;;;;4858835;29;20052;-84
2022/06/23 03:55:22;;;;;;;0.08;0.08;;;16.90;99.90;;;;;;4846733;29;20032;-84
2022/06/23 03:57:56;;;;;;;0.10;0.10;;;16.90;99.90;;;;;;4858270;29;20099;-84
2022/06/23 04:00:39;;;;;;;0.15;0.15;;;16.80;99.90;;;;;;4857077;29;21397;-89
2022/06/23 04:03:17;;;;;;;2.08;0.63;;;16.70;99.90;;;;;;4860396;29;20064;-89
2022/06/23 04:05:54;;;;;;;1.20;0.68;;;16.70;99.90;;;;;;4858177;29;20060;-88
2022/06/23 04:08:22;;;;;;;0.57;0.57;;;16.60;99.90;;;;;;4856913;29;20061;-89
2022/06/23 04:10:50;;;;;;;0.08;0.08;;;16.60;99.90;;;;;;4858878;29;20972;-88
2022/06/23 04:13:38;;;;;;;0.20;0.20;;;16.50;99.90;;;;;;4859517;29;20101;-86
2022/06/23 04:16:09;;;;;;;0.98;0.60;;;16.60;99.90;;;;;;4858948;29;20515;-88
2022/06/23 04:18:39;;;;;;;0.00;0.00;;;16.60;99.90;;;;;;4858226;29;20518;-87
2022/06/23 04:21:14;;;;;;;0.08;0.08;;;16.60;99.90;;;;;;4854735;29;20454;-87
2022/06/23 04:23:48;;;;;;;0.10;0.10;;;16.60;99.90;;;;;;4849665;29;20049;-87
2022/06/23 04:26:17;;;;;;;0.10;0.10;;;17.10;99.90;;;;;;4942051;28;20653;-86
2022/06/23 04:28:57;;;;;;;0.00;0.00;;;17.70;99.90;;;;;;4956757;28;20104;-87
2022/06/23 04:31:48;;;;;;;0.10;0.10;;;17.90;99.90;;;;;;4957439;28;20058;-88
2022/06/23 04:34:24;;;;;;;0.00;0.00;;;18.00;99.90;;;;;;4953854;28;20575;-88
2022/06/23 04:36:51;;;;;;;0.10;0.10;;;18.10;99.90;;;;;;4954246;28;20046;-88
2022/06/23 04:39:31;;;;;;;8.65;0.50;;;17.90;99.90;;;;;;4941343;28;20146;-87
2022/06/23 04:42:07;;;;;;;3.20;0.95;;;18.10;99.90;;;;;;4957491;28;20035;-87
2022/06/23 04:44:36;;;;;;;0.70;0.47;;;18.40;99.90;;;;;;4959527;28;20129;-87
2022/06/23 04:47:07;;;;;;;0.45;0.45;;;18.60;99.90;;;;;;4944029;28;20039;-87
2022/06/23 04:49:44;;;;;;;0.10;0.10;;;18.90;99.90;;;;;;4955221;28;20042;-87
2022/06/23 04:52:23;;;;;;;0.00;0.00;;;19.10;99.90;;;;;;4958114;28;20035;-90
2022/06/23 04:55:11;;;;;;;0.05;0.05;;;19.20;99.90;;;;;;4955825;28;20470;-88
2022/06/23 04:57:51;;;;;;;0.00;0.00;;;19.40;99.90;;;;;;4920323;28;20609;-90
2022/06/23 05:00:40;;;;;;;0.77;0.77;;;19.40;99.90;;;;;;4952956;28;20053;-89
2022/06/23 05:03:17;;;;;;;0.03;0.03;;;19.60;99.90;;;;;;4953043;28;20031;-90
2022/06/23 05:05:44;;;;;;;0.17;0.17;;;20.00;99.90;;;;;;4933697;28;20582;-90
2022/06/23 05:08:29;;;;;;;0.55;0.55;;;19.90;99.90;;;;;;4954249;28;20098;-88
2022/06/23 05:11:29;;;;;;;0.00;0.00;;;20.00;99.90;;;;;;4955809;28;20043;-90
2022/06/23 05:14:02;;;;;;;0.00;0.00;;;20.40;99.90;;;;;;4948656;28;20483;-89
2022/06/23 05:16:34;;;;;;;7.88;1.10;;;20.50;99.90;;;;;;4930320;28;20035;-89
2022/06/23 05:19:06;;;;;;;0.00;0.00;;;20.40;99.90;;;;;;4958691;28;20043;-89
2022/06/23 05:21:40;;;;;;;0.00;0.00;;;20.80;99.90;;;;;;4948138;28;20047;-89
2022/06/23 05:24:15;;;;;;;0.20;0.20;;;20.90;99.90;;;;;;4938089;28;20038;-90
2022/06/23 05:27:05;;;;;;;1.88;0.75;;;21.20;99.90;;;;;;4952772;28;20030;-89
2022/06/23 05:29:38;;;;;;;0.10;0.10;;;21.50;99.90;;;;;;4949441;28;20066;-90
2022/06/23 05:32:24;;;;;;;0.00;0.00;;;21.60;99.90;;;;;;4957810;28;20399;-90
2022/06/23 05:34:57;;;;;;;0.20;0.20;;;21.40;99.90;;;;;;4936474;28;20062;-89
2022/06/23 05:37:29;;;;;;;0.30;0.25;;;21.70;99.90;;;;;;4963775;28;20483;-91
2022/06/23 05:40:02;;;;;;;1.30;0.40;;;21.50;99.90;;;;;;4964794;28;20131;-89
2022/06/23 05:42:30;;;;;;;0.00;0.00;;;21.60;99.90;;;;;;4950762;28;20027;-87
2022/06/23 05:45:04;;;;;;;0.30;0.10;;;21.70;99.90;;;;;;4956591;28;20117;-86
2022/06/23 05:47:33;;;;;;;0.10;0.10;;;22.20;99.90;;;;;;4960109;28;20042;-88
2022/06/23 05:50:07;;;;;;;0.10;0.10;;;22.50;99.90;;;;;;4938878;28;20031;-88
2022/06/23 05:53:03;;;;;;;0.00;0.00;;;22.30;99.90;;;;;;4957703;28;20035;-83
2022/06/23 05:55:53;;;;;;;1.80;0.75;;;24.60;99.90;;;;;;4942582;28;20468;-84
2022/06/23 05:58:46;;;;;;;0.00;0.00;;;25.10;99.90;;;;;;4960416;28;20043;-83
2022/06/23 06:01:26;;;;;;;0.00;0.00;;;25.50;99.90;;;;;;4957595;28;20105;-83
2022/06/23 06:04:19;;;;;;;0.00;0.00;;;25.60;99.90;;;;;;4944394;28;20130;-84
2022/06/23 06:06:45;;;;;;;0.00;0.00;;;25.90;99.90;;;;;;4959969;28;20042;-84
2022/06/23 06:12:01;;;;;;;0.10;0.10;;;26.20;99.90;;;;;;4960254;28;20053;-83
2022/06/23 06:14:30;;;;;;;0.08;0.08;;;26.70;99.90;;;;;;4957795;28;20055;-83
2022/06/23 06:16:57;;;;;;;0.00;0.00;;;27.10;99.90;;;;;;4955259;28;20090;-84
2022/06/23 06:19:25;;;;;;;0.00;0.00;;;28.00;98.80;;;;;;4956481;28;20030;-84
2022/06/23 06:21:57;;;;;;;0.00;0.00;;;27.40;99.90;;;;;;4951399;28;20139;-84
2022/06/23 06:24:42;;;;;;;0.10;0.03;;;27.50;99.70;;;;;;4957363;28;20495;-82
2022/06/23 06:27:11;;;;;;;0.00;0.00;;;27.60;99.00;;;;;;4937374;28;20134;-83
2022/06/23 06:29:40;;;;;;;0.20;0.20;;;27.20;99.90;;;;;;4956610;28;20097;-82
2022/06/23 06:32:30;;;;;;;0.10;0.10;;;26.80;99.90;;;;;;4960426;28;20027;-82
2022/06/23 06:35:17;;;;;;;0.10;0.10;;;27.20;99.60;;;;;;4958889;28;20042;-82
2022/06/23 06:37:49;;;;;;;0.38;0.32;;;27.30;99.50;;;;;;4959869;28;20069;-81
2022/06/23 06:40:16;;;;;;;0.08;0.08;;;27.70;97.10;;;;;;4961309;28;20142;-81
2022/06/23 06:42:47;;;;;;;0.00;0.00;;;28.40;96.20;;;;;;4958330;28;20586;-82
2022/06/23 06:45:17;;;;;;;0.03;0.03;;;28.10;96.00;;;;;;4961223;28;20039;-82
2022/06/23 06:47:44;;;;;;;0.00;0.00;;;28.90;94.50;;;;;;4944366;28;20026;-82
2022/06/23 06:50:18;;;;;;;0.00;0.00;;;29.20;91.50;;;;;;4963521;28;20035;-81
2022/06/23 06:52:45;;;;;;;0.00;0.00;;;29.40;90.70;;;;;;4941947;28;20082;-82
2022/06/23 06:55:24;;;;;;;0.20;0.10;;;29.30;92.60;;;;;;4962994;28;20042;-82
2022/06/23 06:58:16;;;;;;;1.92;0.63;;;29.80;90.00;;;;;;4948513;28;20038;-82
2022/06/23 07:00:50;;;;;;;0.10;0.00;;;29.30;91.40;;;;;;4958297;28;20259;-82
2022/06/23 07:03:20;;;;;;;0.30;0.30;;;29.80;83.80;;;;;;4957367;28;20039;-82
2022/06/23 07:06:00;;;;;;;0.10;0.10;;;30.80;80.00;;;;;;4960432;28;20034;-82
2022/06/23 07:08:30;;;;;;;0.00;0.00;;;31.00;77.50;;;;;;4957578;28;20126;-82
2022/06/23 07:11:17;;;;;;;0.22;0.20;;;31.30;75.80;;;;;;4958459;28;20512;-82
2022/06/23 07:14:06;;;;;;;1.17;0.60;;;31.30;74.00;;;;;;4959027;28;20777;-82
2022/06/23 07:16:35;;;;;;;0.00;0.00;;;32.30;74.40;;;;;;4962630;28;20830;-82
2022/06/23 07:19:15;;;;;;;0.20;0.20;;;32.40;71.00;;;;;;4958910;28;20142;-82
2022/06/23 07:21:52;;;;;;;2.55;1.10;;;32.00;70.80;;;;;;4957390;28;20078;-81
2022/06/23 07:24:23;;;;;;;0.40;0.30;;;32.60;67.50;;;;;;4939988;28;20078;-82
2022/06/23 07:26:51;;;;;;;0.10;0.10;;;32.30;69.90;;;;;;4959874;28;20136;-82
2022/06/23 07:29:28;;;;;;;0.00;0.00;;;33.20;65.90;;;;;;4962965;28;20034;-83
2022/06/23 07:32:15;;;;;;;1.05;0.95;;;33.40;70.20;;;;;;4957771;28;20034;-82
2022/06/23 07:34:53;;;;;;;1.90;0.68;;;33.40;65.50;;;;;;4962891;28;20117;-82
2022/06/23 07:37:44;;;;;;;0.08;0.08;;;33.80;63.20;;;;;;4962384;28;20403;-82
2022/06/23 07:40:11;;;;;;;0.03;0.00;;;34.30;64.60;;;;;;4960108;28;20038;-82
2022/06/23 07:42:40;;;;;;;0.00;0.00;;;34.60;63.90;;;;;;4957971;28;20105;-82
2022/06/23 07:45:29;;;;;;;0.00;0.00;;;33.90;63.20;;;;;;4960009;28;20518;-83
2022/06/23 07:47:55;;;;;;;0.20;0.20;;;34.70;62.00;;;;;;4958137;28;20051;-83
2022/06/23 07:50:21;;;;;;;0.20;0.15;;;34.90;61.70;;;;;;4944551;28;20511;-83
2022/06/23 07:52:48;;;;;;;0.75;0.25;;;34.70;61.30;;;;;;4958323;28;20050;-83
2022/06/23 07:55:41;;;;;;;0.00;0.00;;;35.40;60.20;;;;;;4943668;28;20030;-83
2022/06/23 07:58:08;;;;;;;0.25;0.20;;;35.60;60.70;;;;;;4956506;28;20058;-82
2022/06/23 08:00:40;;;;;;;6.97;1.45;;;35.10;63.00;;;;;;4957427;28;20042;-83
2022/06/23 08:03:13;;;;;;;0.00;0.00;;;35.70;59.30;;;;;;4957272;28;20126;-82
2022/06/23 08:05:53;;;;;;;0.08;0.08;;;37.00;57.00;;;;;;4951429;28;20110;-82
2022/06/23 08:08:26;;;;;;;0.30;0.30;;;37.20;57.30;;;;;;4960529;28;20035;-82
2022/06/23 08:13:47;;;;;;;0.15;0.15;;;35.30;58.40;;;;;;4962385;28;20414;-82
2022/06/23 08:19:10;;;;;;;7.97;1.33;;;33.80;65.80;;;;;;4959760;28;20049;-81
2022/06/23 08:21:46;;;;;;;0.17;0.17;;;33.00;69.00;;;;;;4956919;28;20042;-82
2022/06/23 08:24:18;;;;;;;0.10;0.10;;;32.80;69.30;;;;;;4956512;28;20050;-83
2022/06/23 08:26:48;;;;;;;0.20;0.10;;;32.30;76.90;;;;;;4942113;28;20109;-81
2022/06/23 08:29:19;;;;;;;0.00;0.00;;;33.00;71.80;;;;;;4958675;28;20031;-82
2022/06/23 08:31:46;;;;;;;0.30;0.30;;;32.70;76.00;;;;;;4957412;28;20046;-82
2022/06/23 08:34:12;;;;;;;0.57;0.32;;;32.00;78.60;;;;;;4959199;28;20499;-82
2022/06/23 08:36:45;;;;;;;0.20;0.20;;;33.70;73.40;;;;;;4956633;28;20038;-83
2022/06/23 08:39:36;;;;;;;1.13;0.38;;;36.00;64.10;;;;;;4958551;28;20043;-82
2022/06/23 08:42:14;;;;;;;0.20;0.00;;;36.30;64.40;;;;;;4956564;28;20058;-83
2022/06/23 08:44:45;;;;;;;0.95;0.68;;;36.90;63.60;;;;;;4950112;28;20033;-83
2022/06/23 08:47:32;;;;;;;0.20;0.10;;;35.10;67.00;;;;;;4961391;28;20536;-83
2022/06/23 08:50:05;;;;;;;0.10;0.10;;;34.40;68.80;;;;;;4957353;28;20077;-82
2022/06/23 08:52:50;;;;;;;0.28;0.10;;;34.00;69.50;;;;;;4959898;28;20022;-82
2022/06/23 08:55:21;;;;;;;0.52;0.45;;;34.90;67.50;;;;;;4959917;28;20077;-82
2022/06/23 08:58:05;;;;;;;0.68;0.60;;;36.30;62.40;;;;;;4955864;28;20038;-82
2022/06/23 09:00:56;;;;;;;0.13;0.13;;;34.30;65.90;;;;;;4955877;28;20047;-83
2022/06/23 09:04:06;;;;;;;0.17;0.13;;;32.90;70.30;;;;;;4956180;28;20095;-83
2022/06/23 09:06:40;;;;;;;0.10;0.10;;;33.40;69.70;;;;;;4882588;29;20082;-82
2022/06/23 09:09:35;;;;;;;0.50;0.50;;;32.20;73.40;;;;;;4882319;29;20063;-82
2022/06/23 09:12:21;;;;;;;0.55;0.55;;;31.80;78.60;;;;;;4882047;29;20538;-82
2022/06/23 09:15:17;;;;;;;0.20;0.20;;;31.80;77.80;;;;;;4882568;29;20527;-82
2022/06/23 09:17:58;;;;;;;0.73;0.35;;;32.30;75.90;;;;;;4881961;29;20142;-82
2022/06/23 09:20:46;;;;;;;0.20;0.17;;;33.60;74.70;;;;;;4882132;29;20033;-84
2022/06/23 09:23:43;;;;;;;0.77;0.45;;;35.30;63.30;;;;;;4882057;29;20072;-83
2022/06/23 09:26:23;;;;;;;0.77;0.63;;;34.40;62.90;;;;;;4866484;29;20120;-83
2022/06/23 09:29:27;;;;;;;0.77;0.60;;;35.80;68.80;;;;;;4882459;29;20037;-82
2022/06/23 09:32:05;;;;;;;0.30;0.30;;;35.00;63.70;;;;;;4882033;29;20052;-82
2022/06/23 09:35:08;;;;;;;1.02;0.90;;;36.20;62.70;;;;;;4881869;29;20039;-83
2022/06/23 09:38:00;;;;;;;0.45;0.45;;;36.60;57.80;;;;;;4929742;28;20043;-83
2022/06/23 09:40:35;;;;;;;1.02;0.47;;;38.60;55.60;;;;;;4959988;28;20043;-83
2022/06/23 09:43:22;;;;;;;7.20;2.07;;;38.70;55.00;;;;;;4950598;28;20053;-82
2022/06/23 09:46:33;;;;;;;0.57;0.47;;;38.40;55.80;;;;;;4956072;28;20030;-81
2022/06/23 09:49:26;;;;;;;0.93;0.60;;;39.00;57.20;;;;;;4958889;28;20073;-82
2022/06/23 09:52:10;;;;;;;0.20;0.17;;;39.60;53.30;;;;;;4958179;28;20034;-82
2022/06/23 09:55:01;;;;;;;0.50;0.50;;;37.80;55.20;;;;;;4955285;28;20037;-82
2022/06/23 09:57:35;;;;;;;0.45;0.45;;;34.50;60.90;;;;;;4954896;28;20039;-82
2022/06/23 10:00:37;;;;;;;0.20;0.17;;;38.10;57.20;;;;;;4954513;28;20130;-83
2022/06/23 10:03:30;;;;;;;1.05;0.95;;;38.90;54.20;;;;;;4932288;28;20110;-82
2022/06/23 10:06:06;;;;;;;0.40;0.17;;;38.20;54.90;;;;;;4949482;28;20097;-83
2022/06/23 10:08:46;;;;;;;0.63;0.40;;;39.20;52.70;;;;;;4960258;28;20031;-83
2022/06/23 10:11:44;;;;;;;1.48;0.38;;;36.90;54.40;;;;;;4956906;28;20030;-83
2022/06/23 10:14:41;;;;;;;10.90;1.23;;;37.70;56.10;;;;;;4957812;28;20058;-83
2022/06/23 10:17:29;;;;;;;4.35;1.95;;;34.20;59.80;;;;;;4956968;28;20043;-82
2022/06/23 10:20:01;;;;;;;0.65;0.32;;;34.20;60.30;;;;;;4938863;28;20081;-82
2022/06/23 10:22:29;;;;;;;2.42;1.25;;;33.50;62.70;;;;;;4960645;28;20145;-83
2022/06/23 10:25:34;;;;;;;0.40;0.40;;;32.90;65.20;;;;;;4956365;28;20026;-81
2022/06/23 10:28:09;;;;;;;0.47;0.47;;;32.60;66.60;;;;;;4959322;28;20047;-83
2022/06/23 10:30:44;;;;;;;5.70;1.98;;;32.10;66.70;;;;;;4955594;28;20019;-83
2022/06/23 10:33:30;;;;;;;9.52;1.45;;;31.20;70.10;;;;;;4955164;28;20167;-82
2022/06/23 10:36:13;;;;;;;;;;;31.00;72.00;;;;;;4957452;28;20035;-83
2022/06/23 10:38:46;;;;;;;1.40;0.80;;;30.90;73.80;;;;;;4949307;28;19976;-83
2022/06/23 10:41:36;;;;;;;0.55;0.55;;;30.60;77.50;;;;;;4956690;28;20021;-82
2022/06/23 10:44:39;;;;;;;0.47;0.47;;;29.80;82.00;;;;;;4943848;28;20052;-81
2022/06/23 10:47:21;;;;;;;0.98;0.98;;;29.20;88.70;;;;;;4961927;28;20559;-82
2022/06/23 10:50:08;;;;;;;0.90;0.25;;;28.40;93.40;;;;;;4959778;28;20038;-82
2022/06/23 10:53:00;;;;;;;0.00;0.00;;;27.70;94.10;;;;;;4963603;28;20042;-83
2022/06/23 10:55:43;;;;;;;0.00;0.00;;;27.20;94.40;;;;;;4884196;29;20040;-82
2022/06/23 10:58:16;;;;;;;2.05;0.75;;;26.30;96.00;;;;;;4886384;29;20095;-81
2022/06/23 11:00:57;;;;;;;0.17;0.17;;;25.70;96.30;;;;;;4884572;29;20127;-82
2022/06/23 11:04:00;;;;;;;0.00;0.00;;;24.30;92.30;;;;;;4884599;29;20060;-82
2022/06/23 11:06:48;;;;;;;0.00;0.00;;;22.70;96.20;;;;;;4884768;29;20525;-81
2022/06/23 11:09:52;;;;;;;9.60;0.30;;;20.90;99.90;;;;;;4885201;29;20044;-82
2022/06/23 11:12:38;;;;;;;0.05;0.05;;;20.20;99.90;;;;;;4884765;29;20048;-81
2022/06/23 11:15:24;;;;;;;0.75;0.43;;;19.10;99.90;;;;;;4884662;29;20124;-81
2022/06/23 11:17:52;;;;;;;;;;;17.80;99.90;;;;;;4887041;29;20039;-83
2022/06/23 11:20:46;;;;;;;0.03;0.03;;;17.50;99.90;;;;;;4883938;29;19926;-83
2022/06/23 11:23:54;;;;;;;0.00;0.00;;;17.70;99.90;;;;;;4828444;29;20162;-82
2022/06/23 11:26:37;;;;;;;0.20;0.20;;;17.30;99.90;;;;;;4811214;29;20148;-83
2022/06/23 11:29:11;;;;;;;0.10;0.10;;;17.40;99.90;;;;;;4806627;29;20054;-82
2022/06/23 11:31:42;;;;;;;0.00;0.00;;;16.90;99.90;;;;;;4820831;29;20125;-82
2022/06/23 11:34:16;;;;;;;0.00;0.00;;;17.50;99.90;;;;;;4867107;29;20048;-81
2022/06/23 11:37:06;;;;;;;0.55;0.52;;;17.90;99.90;;;;;;4865447;29;20084;-82
2022/06/23 11:39:34;;;;;;;0.00;0.00;;;18.20;99.90;;;;;;4864892;29;20045;-83
2022/06/23 11:42:15;;;;;;;0.10;0.10;;;18.50;99.90;;;;;;4857877;29;20131;-83
2022/06/23 11:44:58;;;;;;;0.00;0.00;;;18.80;99.90;;;;;;4865431;29;20037;-83
2022/06/23 11:47:50;;;;;;;0.22;0.22;;;18.60;99.90;;;;;;4855052;29;20048;-82
2022/06/23 11:50:38;;;;;;;0.13;0.13;;;18.60;99.90;;;;;;4844913;29;20087;-82
2022/06/23 11:53:35;;;;;;;0.03;0.03;;;18.90;99.90;;;;;;4840675;29;20143;-83
2022/06/23 11:56:42;;;;;;;0.10;0.10;;;19.40;99.90;;;;;;4810214;29;20074;-83
2022/06/23 11:59:48;;;;;;;0.00;0.00;;;19.20;99.90;;;;;;4754963;29;20047;-83
2022/06/23 12:02:13;;;;;;;0.00;0.00;;;18.80;99.90;;;;;;4789899;29;20047;-83
2022/06/23 12:04:57;;;;;;;0.00;0.00;;;19.20;99.90;;;;;;4812403;29;20401;-82
2022/06/23 12:07:49;;;;;;;0.08;0.08;;;19.20;99.90;;;;;;4804021;29;20149;-82
2022/06/23 12:10:26;;;;;;;0.30;0.05;;;19.40;99.90;;;;;;4740998;30;20048;-83
2022/06/23 12:12:56;;;;;;;0.20;0.20;;;19.50;99.90;;;;;;4740384;30;20067;-83
2022/06/23 12:15:55;;;;;;;0.00;0.00;;;19.40;99.90;;;;;;4739163;30;20159;-83
2022/06/23 12:18:39;;;;;;;12.38;1.13;;;19.20;99.90;;;;;;4737851;30;20052;-82
2022/06/23 12:21:25;;;;;;;0.00;0.00;;;19.50;99.90;;;;;;4738805;30;20083;-83
2022/06/23 12:24:25;;;;;;;0.00;0.00;;;19.50;99.90;;;;;;4676451;30;20053;-83
2022/06/23 12:26:59;;;;;;;0.00;0.00;;;19.50;99.90;;;;;;4676367;30;20157;-83
2022/06/23 12:29:43;;;;;;;0.10;0.10;;;19.60;99.90;;;;;;4683290;30;20135;-83
2022/06/23 12:32:22;;;;;;;0.05;0.05;;;19.40;99.90;;;;;;4689211;30;20040;-83
2022/06/23 12:35:16;;;;;;;0.17;0.10;;;19.50;99.90;;;;;;4724624;30;20132;-81
2022/06/23 12:38:06;;;;;;;0.10;0.10;;;18.70;99.90;;;;;;4773505;30;20588;-83
2022/06/23 12:40:36;;;;;;;0.30;0.30;;;18.50;99.90;;;;;;4775324;29;20137;-81
2022/06/23 12:43:29;;;;;;;0.00;0.00;;;18.70;99.90;;;;;;4770505;30;20633;-83
2022/06/23 12:46:06;;;;;;;0.00;0.00;;;18.70;99.90;;;;;;4778728;29;20077;-82
2022/06/23 12:48:59;;;;;;;0.00;0.00;;;19.10;99.90;;;;;;4840172;29;20034;-82
2022/06/23 12:51:37;;;;;;;0.00;0.00;;;19.30;99.90;;;;;;4837768;29;20043;-83
2022/06/23 12:54:39;;;;;;;0.00;0.00;;;19.40;99.90;;;;;;4842420;29;20047;-82
2022/06/23 12:57:36;;;;;;;0.03;0.03;;;19.40;99.90;;;;;;4835347;29;20129;-82
2022/06/23 13:00:10;;;;;;;0.00;0.00;;;19.40;99.90;;;;;;4842954;29;20101;-83
2022/06/23 13:02:43;;;;;;;0.15;0.15;;;19.50;99.90;;;;;;4950430;28;20101;-83
2022/06/23 13:05:34;;;;;;;0.00;0.00;;;19.70;99.90;;;;;;4956403;28;20037;-82
2022/06/23 13:08:20;;;;;;;0.15;0.15;;;19.40;99.90;;;;;;4949677;28;20023;-82
2022/06/23 13:11:06;;;;;;;0.00;0.00;;;20.50;99.90;;;;;;4957181;28;20050;-83
2022/06/23 13:13:46;;;;;;;0.00;0.00;;;20.30;99.90;;;;;;4960399;28;20500;-83
2022/06/23 13:16:18;;;;;;;0.00;0.00;;;20.60;99.90;;;;;;4963410;28;20057;-82
2022/06/23 13:18:57;;;;;;;0.00;0.00;;;20.40;99.90;;;;;;4954734;28;20084;-82
2022/06/23 13:21:27;;;;;;;0.03;0.03;;;20.20;99.90;;;;;;4955527;28;20075;-84
2022/06/23 13:23:57;;;;;;;0.52;0.30;;;20.10;99.90;;;;;;4958067;28;20038;-82
2022/06/23 13:26:33;;;;;;;0.00;0.00;;;19.80;99.90;;;;;;4958839;28;20059;-81
2022/06/23 13:29:04;;;;;;;0.00;0.00;;;20.20;99.90;;;;;;4956184;28;20058;-82
2022/06/23 13:32:00;;;;;;;0.20;0.20;;;20.50;99.90;;;;;;4958617;28;20106;-82
2022/06/23 13:34:31;;;;;;;0.03;0.03;;;20.70;99.90;;;;;;4959711;28;20058;-82
2022/06/23 13:37:24;;;;;;;0.10;0.00;;;21.10;99.90;;;;;;4961615;28;20053;-83
2022/06/23 13:39:53;;;;;;;0.00;0.00;;;21.50;99.90;;;;;;4940634;28;20045;-82
2022/06/23 13:42:30;;;;;;;0.00;0.00;;;21.50;99.90;;;;;;4954824;28;20482;-81
2022/06/23 13:45:02;;;;;;;0.30;0.10;;;21.80;99.90;;;;;;4957836;28;20039;-82
2022/06/23 13:47:37;;;;;;;0.52;0.28;;;21.90;99.90;;;;;;4960196;28;20030;-82
2022/06/23 13:50:25;;;;;;;0.00;0.00;;;21.90;99.90;;;;;;4957064;28;20070;-82
2022/06/23 13:53:02;;;;;;;1.45;0.57;;;21.70;99.90;;;;;;4943830;28;20035;-82
2022/06/23 13:55:42;;;;;;;0.08;0.03;;;21.90;99.90;;;;;;4959796;28;20507;-83
2022/06/23 13:58:27;;;;;;;0.00;0.00;;;21.60;99.90;;;;;;4956991;28;20026;-85
2022/06/23 14:01:00;;;;;;;0.00;0.00;;;21.50;99.90;;;;;;4954973;28;20034;-82
2022/06/23 14:04:05;;;;;;;0.77;0.70;;;21.30;99.90;;;;;;4954674;28;20039;-83
2022/06/23 14:06:40;;;;;;;0.00;0.00;;;21.20;99.90;;;;;;4934896;28;20043;-82
2022/06/23 14:09:32;;;;;;;0.00;0.00;;;21.20;99.90;;;;;;4957342;28;20043;-81
2022/06/23 14:12:01;;;;;;;0.00;0.00;;;21.10;99.90;;;;;;4948533;28;20105;-82